Time;durP1;ratioP1;P1;durP2;ratioP2;P2;SDS_P1;SDS_P2;PMS_P1;PMS_P2;Temp;Humidity;BMP_temperature;BMP_pressure;BME280_temperature;BME280_humidity;BME280_pressure;Samples;Min_cycle;Max_cycle;Signal;HPM_P1;HPM_P2
2021/10/13 00:04:29;;;;;;;;;;;;;;;11.73;73.68;102419.63;10292921;28;19945;-82
2021/10/13 00:09:29;;;;;;;;;;;;;;;11.80;73.72;102416.06;10292712;28;20374;-82
2021/10/13 00:14:30;;;;;;;;;;;;;;;11.86;74.04;102409.16;10292794;28;20568;-82
2021/10/13 00:19:30;;;;;;;;;;;;;;;11.79;73.67;102408.09;10292555;28;19914;-82
2021/10/13 00:24:30;;;;;;;;;;;;;;;11.71;73.04;102400.81;10299145;28;19988;-82
2021/10/13 00:29:32;;;;;;;;;;;;;;;11.65;73.33;102404.19;10299965;28;20358;-79
2021/10/13 00:34:33;;;;;;;;;;;;;;;11.79;73.93;102414.38;10283292;28;20007;-83
2021/10/13 00:39:33;;;;;;;;;;;;;;;12.00;73.93;102423.94;10298850;28;20000;-82
2021/10/13 00:44:33;;;;;;;;;;;;;;;11.93;74.59;102440.03;10282172;28;19948;-82
2021/10/13 00:49:33;;;;;;;;;;;;;;;11.81;75.59;102438.66;10299706;28;19918;-81
2021/10/13 00:54:34;;;;;;;;;;;;;;;11.74;75.95;102441.19;10281791;28;19921;-82
2021/10/13 00:59:34;;;;;;;;;;;;;;;11.90;76.09;102432.25;10299999;28;20012;-80
2021/10/13 01:04:34;;;;;;;;;;;;;;;12.02;75.73;102427.31;10299973;28;19922;-81
2021/10/13 01:09:54;;;;;;;;;;;;;;;12.10;75.56;102433.59;10298849;28;20429;-82
2021/10/13 01:14:58;;;;;;;;;;;;;;;12.13;75.40;102432.41;10299393;28;20317;-82
2021/10/13 01:20:17;;;;;;;;;;;;;;;12.19;74.69;102428.13;10298192;28;19914;-82
2021/10/13 01:25:35;;;;;;;;;;;;;;;12.07;74.58;102411.38;10299335;28;20248;-80
2021/10/13 01:30:46;;;;;;;;;;;;;;;12.00;74.49;102432.06;10298629;28;19918;-82
2021/10/13 01:35:48;;;;;;;;;;;;;;;12.09;74.82;102428.31;10297546;28;20297;-82
2021/10/13 01:40:48;;;;;;;;;;;;;;;12.19;74.50;102428.13;10297296;28;19921;-83
2021/10/13 01:45:49;;;;;;;;;;;;;;;12.30;74.36;102438.66;10298450;28;20274;-82
2021/10/13 01:50:50;;;;;;;;;;;;;;;12.38;74.73;102440.50;10281957;28;19922;-83
2021/10/13 01:55:50;;;;;;;;;;;;;;;12.28;74.83;102448.84;10300504;28;19940;-83
2021/10/13 02:00:51;;;;;;;;;;;;;;;12.37;75.26;102446.97;10318302;28;19941;-84
2021/10/13 02:05:52;;;;;;;;;;;;;;;12.41;74.93;102442.88;10329096;28;19914;-84
2021/10/13 02:10:53;;;;;;;;;;;;;;;12.34;74.70;102442.72;10334881;28;19981;-84
2021/10/13 02:15:53;;;;;;;;;;;;;;;12.27;74.62;102439.84;10317062;28;19921;-84
2021/10/13 02:20:55;;;;;;;;;;;;;;;12.26;74.43;102449.03;10299517;28;19929;-83
2021/10/13 02:25:55;;;;;;;;;;;;;;;12.10;73.96;102446.31;10295677;28;19993;-84
2021/10/13 02:30:56;;;;;;;;;;;;;;;11.91;73.60;102457.53;10296235;28;19989;-83
2021/10/13 02:35:56;;;;;;;;;;;;;;;11.70;73.54;102456.09;10295641;28;19930;-84
2021/10/13 02:40:57;;;;;;;;;;;;;;;11.72;73.79;102461.34;10295055;28;19914;-84
2021/10/13 02:45:59;;;;;;;;;;;;;;;11.76;74.20;102471.69;10295024;28;19914;-84
2021/10/13 02:51:16;;;;;;;;;;;;;;;11.73;74.06;102463.03;10294416;28;19922;-84
2021/10/13 02:56:20;;;;;;;;;;;;;;;11.63;74.32;102453.19;10295888;28;19968;-84
2021/10/13 03:01:20;;;;;;;;;;;;;;;11.62;74.09;102451.50;10294485;28;19961;-84
2021/10/13 03:06:20;;;;;;;;;;;;;;;11.57;73.72;102463.88;10295862;28;20658;-85
2021/10/13 03:11:21;;;;;;;;;;;;;;;11.61;73.77;102468.81;10294831;28;19918;-84
2021/10/13 03:16:22;;;;;;;;;;;;;;;11.64;73.78;102475.75;10294048;28;20274;-84
2021/10/13 03:21:24;;;;;;;;;;;;;;;11.68;73.85;102474.41;10294189;28;19922;-84
2021/10/13 03:26:24;;;;;;;;;;;;;;;11.73;73.80;102480.19;10294650;28;19996;-85
2021/10/13 03:31:24;;;;;;;;;;;;;;;11.76;73.97;102485.28;10296274;28;20381;-84
2021/10/13 03:36:24;;;;;;;;;;;;;;;11.80;74.39;102483.91;10295675;28;19954;-85
2021/10/13 03:41:25;;;;;;;;;;;;;;;11.92;75.05;102489.91;10294989;28;19918;-84
2021/10/13 03:46:25;;;;;;;;;;;;;;;12.06;74.94;102496.53;10295407;28;19928;-84
2021/10/13 03:51:25;;;;;;;;;;;;;;;12.15;74.37;102492.81;10296147;28;19945;-84
2021/10/13 03:56:26;;;;;;;;;;;;;;;12.19;74.65;102485.16;10298202;28;20370;-84
2021/10/13 04:01:26;;;;;;;;;;;;;;;12.31;74.70;102478.38;10301782;28;19914;-84
2021/10/13 04:06:26;;;;;;;;;;;;;;;12.34;74.42;102478.88;10303517;28;19922;-84
2021/10/13 04:11:27;;;;;;;;;;;;;;;12.33;74.13;102470.94;10301435;28;20353;-86
2021/10/13 04:16:27;;;;;;;;;;;;;;;12.19;73.58;102471.59;10302322;28;20056;-84
2021/10/13 04:21:27;;;;;;;;;;;;;;;11.92;73.23;102479.06;10303089;28;20045;-84
2021/10/13 04:26:28;;;;;;;;;;;;;;;11.69;73.17;102489.66;10316921;28;20375;-85
2021/10/13 04:31:28;;;;;;;;;;;;;;;11.51;73.31;102478.94;10301457;28;19918;-84
2021/10/13 04:36:28;;;;;;;;;;;;;;;11.38;73.71;102486.69;10301776;28;20048;-83
2021/10/13 04:41:28;;;;;;;;;;;;;;;11.26;73.64;102494.25;10301034;28;19918;-84
2021/10/13 04:46:29;;;;;;;;;;;;;;;11.13;73.45;102491.16;10301655;28;19950;-84
2021/10/13 04:51:29;;;;;;;;;;;;;;;11.00;73.07;102488.03;10266566;28;19929;-86
2021/10/13 04:56:29;;;;;;;;;;;;;;;10.96;73.33;102486.69;10355618;28;20281;-82
2021/10/13 05:01:29;;;;;;;;;;;;;;;11.08;73.57;102480.81;10338601;28;19914;-82
2021/10/13 05:06:30;;;;;;;;;;;;;;;11.30;74.11;102492.94;10338702;28;19940;-81
2021/10/13 05:11:30;;;;;;;;;;;;;;;11.47;74.48;102498.44;10338398;28;20001;-81
2021/10/13 05:16:30;;;;;;;;;;;;;;;11.68;74.52;102506.09;10340730;28;19921;-84
2021/10/13 05:21:30;;;;;;;;;;;;;;;11.71;74.43;102513.91;10339514;28;20000;-84
2021/10/13 05:26:30;;;;;;;;;;;;;;;11.76;74.02;102509.69;10339214;28;19917;-82
2021/10/13 05:31:31;;;;;;;;;;;;;;;11.81;74.06;102503.78;10338555;28;19944;-82
2021/10/13 05:36:31;;;;;;;;;;;;;;;11.91;74.28;102514.53;10339270;28;20012;-82
2021/10/13 05:41:31;;;;;;;;;;;;;;;12.04;74.37;102520.31;10353086;28;19929;-82
2021/10/13 05:46:32;;;;;;;;;;;;;;;12.11;74.18;102510.47;10337918;28;19920;-83
2021/10/13 05:51:32;;;;;;;;;;;;;;;12.15;74.32;102521.84;10338045;28;19971;-83
2021/10/13 05:56:32;;;;;;;;;;;;;;;12.24;74.37;102520.84;10336197;28;19922;-82
2021/10/13 06:01:32;;;;;;;;;;;;;;;12.32;74.73;102523.56;10337275;28;19918;-82
2021/10/13 06:06:33;;;;;;;;;;;;;;;12.34;75.05;102524.22;10336280;28;19925;-82
2021/10/13 06:11:33;;;;;;;;;;;;;;;12.38;74.89;102530.16;10335788;28;19917;-82
2021/10/13 06:16:33;;;;;;;;;;;;;;;12.45;75.29;102528.50;10335965;28;20095;-83
2021/10/13 06:21:33;;;;;;;;;;;;;;;12.59;74.90;102537.81;10334869;28;20362;-82
2021/10/13 06:26:34;;;;;;;;;;;;;;;12.63;74.80;102541.88;10335720;28;19968;-82
2021/10/13 06:31:34;;;;;;;;;;;;;;;12.69;75.00;102552.91;10335366;28;19922;-82
2021/10/13 06:36:34;;;;;;;;;;;;;;;12.87;74.89;102551.91;10335256;28;19928;-82
2021/10/13 06:41:34;;;;;;;;;;;;;;;13.04;74.48;102562.56;10334340;28;19925;-82
2021/10/13 06:46:34;;;;;;;;;;;;;;;13.19;74.29;102568.13;10334745;28;19928;-81
2021/10/13 06:51:35;;;;;;;;;;;;;;;13.40;74.11;102564.00;10335910;28;19926;-82
2021/10/13 06:56:35;;;;;;;;;;;;;;;13.92;74.26;102568.91;10334859;28;19932;-82
2021/10/13 07:01:36;;;;;;;;;;;;;;;14.80;73.96;102565.69;10349985;28;19926;-82
2021/10/13 07:06:36;;;;;;;;;;;;;;;15.46;73.45;102575.94;10335452;28;19924;-82
2021/10/13 07:11:36;;;;;;;;;;;;;;;15.37;73.02;102572.44;10335996;28;19956;-82
2021/10/13 07:16:36;;;;;;;;;;;;;;;15.44;73.31;102576.09;10336081;28;19926;-81
2021/10/13 07:21:37;;;;;;;;;;;;;;;15.43;73.13;102568.97;10335286;28;19926;-82
2021/10/13 07:26:52;;;;;;;;;;;;;;;15.84;73.00;102570.38;10375897;28;19918;-82
2021/10/13 07:32:07;;;;;;;;;;;;;;;;;;;;;
2021/10/13 07:37:07;;;;;;;;;;;;;;;15.72;72.49;102573.56;10381609;28;19914;-83
2021/10/13 07:42:08;;;;;;;;;;;;;;;15.67;72.40;102580.66;10364462;28;19921;-82
2021/10/13 07:47:08;;;;;;;;;;;;;;;15.55;72.25;102569.34;10344099;28;19925;-82
2021/10/13 07:52:09;;;;;;;;;;;;;;;15.53;72.25;102574.13;10342162;28;19922;-81
2021/10/13 07:57:09;;;;;;;;;;;;;;;15.48;71.92;102574.72;10340851;28;20365;-83
2021/10/13 08:02:09;;;;;;;;;;;;;;;15.71;72.13;102579.25;10343667;28;20349;-82
2021/10/13 08:07:09;;;;;;;;;;;;;;;16.29;72.62;102585.56;10343126;28;19924;-82
2021/10/13 08:12:10;;;;;;;;;;;;;;;16.45;72.65;102582.59;10352730;28;19957;-83
2021/10/13 08:17:10;;;;;;;;;;;;;;;16.61;72.21;102591.56;10360945;28;20024;-83
2021/10/13 08:22:10;;;;;;;;;;;;;;;16.65;72.02;102599.16;10345782;28;19954;-82
2021/10/13 08:27:11;;;;;;;;;;;;;;;16.82;72.07;102599.78;10341937;28;19941;-83
2021/10/13 08:32:11;;;;;;;;;;;;;;;17.71;72.81;102606.47;10343198;28;19918;-83
2021/10/13 08:37:11;;;;;;;;;;;;;;;18.31;72.16;102608.44;10342020;28;19944;-82
2021/10/13 08:42:12;;;;;;;;;;;;;;;19.18;71.53;102606.59;10342777;28;19963;-83
2021/10/13 08:47:12;;;;;;;;;;;;;;;19.49;71.76;102611.38;10345953;28;20370;-82
2021/10/13 08:52:13;;;;;;;;;;;;;;;19.65;71.83;102610.09;10362641;28;19921;-81
2021/10/13 08:57:17;;;;;;;;;;;;;;;19.68;70.45;102614.31;10348206;28;19969;-82
2021/10/13 09:02:35;;;;;;;;;;;;;;;18.96;69.94;102629.84;10376998;28;19973;-80
2021/10/13 09:07:36;;;;;;;;;;;;;;;18.30;70.82;102631.41;10387355;28;20067;-80
2021/10/13 09:12:37;;;;;;;;;;;;;;;17.86;69.61;102629.97;10370507;28;19925;-81
2021/10/13 09:17:50;;;;;;;;;;;;;;;17.68;70.43;102632.41;10353758;28;19914;-81
2021/10/13 09:23:03;;;;;;;;;;;;;;;17.80;70.57;102624.47;10340271;28;20273;-81
2021/10/13 09:28:04;;;;;;;;;;;;;;;17.92;70.67;102631.06;10340703;28;19925;-80
2021/10/13 09:33:14;;;;;;;;;;;;;;;18.08;70.59;102627.13;10354092;28;20300;-81
2021/10/13 09:38:15;;;;;;;;;;;;;;;18.67;70.75;102617.34;10338831;28;19956;-81
2021/10/13 09:43:34;;;;;;;;;;;;;;;19.32;71.17;102623.88;10338068;28;19917;-81
2021/10/13 09:48:36;;;;;;;;;;;;;;;19.34;71.67;102623.69;10353938;28;20263;-81
2021/10/13 09:53:36;;;;;;;;;;;;;;;19.10;70.75;102636.16;10342323;28;20393;-82
2021/10/13 09:58:37;;;;;;;;;;;;;;;18.49;70.71;102657.19;10340169;28;19921;-81
2021/10/13 10:03:37;;;;;;;;;;;;;;;18.08;70.43;102660.84;10339165;28;19953;-81
2021/10/13 10:08:50;;;;;;;;;;;;;;;17.78;65.73;102649.34;10335752;28;20262;-81
2021/10/13 10:13:50;;;;;;;;;;;;;;;17.61;70.71;102656.16;10336999;28;20366;-82
2021/10/13 10:18:51;;;;;;;;;;;;;;;17.49;70.98;102663.25;10336947;28;19928;-81
2021/10/13 10:23:52;;;;;;;;;;;;;;;17.52;70.85;102663.72;10336166;28;20001;-81
2021/10/13 10:28:57;;;;;;;;;;;;;;;17.92;70.37;102671.34;10334666;28;20064;-82
2021/10/13 10:34:03;;;;;;;;;;;;;;;19.09;72.88;102662.78;10335458;28;19914;-84
2021/10/13 10:39:04;;;;;;;;;;;;;;;20.54;73.39;102655.19;10337212;28;19920;-85
2021/10/13 10:44:23;;;;;;;;;;;;;;;21.39;69.64;102667.69;10336458;28;20409;-85
2021/10/13 10:49:42;;;;;;;;;;;;;;;20.49;70.20;102670.66;10338320;28;19959;-86
2021/10/13 10:54:51;;;;;;;;;;;;;;;19.80;69.66;102667.56;10338982;28;19921;-86
2021/10/13 10:59:51;;;;;;;;;;;;;;;19.71;69.08;102672.44;10342574;28;19976;-87
2021/10/13 11:05:03;;;;;;;;;;;;;;;21.18;71.16;102660.63;10335486;28;19914;-88
2021/10/13 11:10:05;;;;;;;;;;;;;;;21.41;64.79;102666.41;10337304;28;20370;-87
2021/10/13 11:15:08;;;;;;;;;;;;;;;21.11;69.48;102671.72;10353496;28;20366;-88
2021/10/13 11:20:09;;;;;;;;;;;;;;;20.55;65.67;102673.41;10337251;28;19921;-89
2021/10/13 11:25:13;;;;;;;;;;;;;;;21.08;68.94;102684.00;10335759;28;20305;-87
2021/10/13 11:30:15;;;;;;;;;;;;;;;21.41;68.16;102679.31;10353654;28;19924;-86
2021/10/13 11:35:18;;;;;;;;;;;;;;;21.58;65.85;102674.91;10337218;28;19918;-88
2021/10/13 11:40:19;;;;;;;;;;;;;;;21.08;66.10;102683.19;10350504;28;19964;-89
2021/10/13 11:45:19;;;;;;;;;;;;;;;22.21;65.76;102684.81;10338819;28;20420;-90
2021/10/13 11:50:21;;;;;;;;;;;;;;;22.89;63.68;102678.94;10342068;28;19925;-88
2021/10/13 11:55:21;;;;;;;;;;;;;;;23.32;68.17;102679.72;10346715;28;19967;-89
2021/10/13 12:00:23;;;;;;;;;;;;;;;23.79;67.23;102671.44;10344670;28;19944;-88
2021/10/13 12:05:30;;;;;;;;;;;;;;;24.20;62.28;102677.84;10362952;28;19956;-89
2021/10/13 12:10:37;;;;;;;;;;;;;;;25.03;64.00;102668.03;10348166;28;19925;-90
2021/10/13 12:15:37;;;;;;;;;;;;;;;25.56;67.22;102669.44;10340822;28;19918;-91
2021/10/13 12:20:38;;;;;;;;;;;;;;;24.63;60.92;102660.69;10346165;28;19921;-91
2021/10/13 12:25:38;;;;;;;;;;;;;;;23.37;64.93;102669.63;10345926;28;20341;-90
2021/10/13 12:30:38;;;;;;;;;;;;;;;23.43;64.02;102651.25;10357884;28;19917;-89
2021/10/13 12:35:39;;;;;;;;;;;;;;;23.54;65.38;102644.03;10376134;28;19918;-90
2021/10/13 12:40:39;;;;;;;;;;;;;;;23.74;65.07;102641.75;10367698;28;19941;-90
2021/10/13 12:45:40;;;;;;;;;;;;;;;23.49;62.76;102644.75;10364659;28;19921;-89
2021/10/13 12:50:40;;;;;;;;;;;;;;;23.06;63.43;102645.09;10347026;28;20386;-89
2021/10/13 12:55:40;;;;;;;;;;;;;;;22.24;63.68;102656.75;10358190;28;19945;-90
2021/10/13 13:00:40;;;;;;;;;;;;;;;21.84;64.97;102654.47;10343118;28;19917;-90
2021/10/13 13:05:41;;;;;;;;;;;;;;;21.50;61.92;102647.63;10343401;28;19917;-88
2021/10/13 13:10:41;;;;;;;;;;;;;;;21.88;66.77;102649.31;10346299;28;20303;-90
2021/10/13 13:15:41;;;;;;;;;;;;;;;21.56;64.30;102652.22;10348123;28;19917;-86
2021/10/13 13:20:41;;;;;;;;;;;;;;;21.07;66.64;102656.72;10341499;28;19922;-91
2021/10/13 13:25:42;;;;;;;;;;;;;;;20.85;66.71;102684.63;10342812;28;19918;-90
2021/10/13 13:30:42;;;;;;;;;;;;;;;20.34;66.29;102662.69;10356013;28;20009;-87
2021/10/13 13:35:42;;;;;;;;;;;;;;;20.25;66.50;102653.00;10343050;28;19917;-90
2021/10/13 13:40:42;;;;;;;;;;;;;;;20.27;64.46;102648.13;10343345;28;19913;-88
2021/10/13 13:45:44;;;;;;;;;;;;;;;19.83;67.92;102652.53;10339447;28;19945;-91
2021/10/13 13:50:44;;;;;;;;;;;;;;;19.67;68.28;102659.34;10340369;28;19922;-93
2021/10/13 13:55:44;;;;;;;;;;;;;;;19.43;69.07;102667.22;10341799;28;19922;-91
2021/10/13 14:00:44;;;;;;;;;;;;;;;19.24;68.44;102677.16;10339848;28;20345;-90
2021/10/13 14:05:45;;;;;;;;;;;;;;;19.34;68.88;102667.66;10356190;28;19948;-92
2021/10/13 14:10:45;;;;;;;;;;;;;;;19.59;69.60;102676.03;10342531;28;20355;-91
2021/10/13 14:15:45;;;;;;;;;;;;;;;19.52;67.80;102665.06;10340237;28;19961;-90
2021/10/13 14:20:45;;;;;;;;;;;;;;;19.09;68.49;102668.28;10341419;28;19923;-88
2021/10/13 14:25:46;;;;;;;;;;;;;;;18.88;65.36;102669.31;10341405;28;19993;-88
2021/10/13 14:30:46;;;;;;;;;;;;;;;18.70;68.07;102667.16;10340580;28;19928;-90
2021/10/13 14:35:46;;;;;;;;;;;;;;;18.53;68.77;102668.59;10338900;28;20000;-90
2021/10/13 14:40:46;;;;;;;;;;;;;;;18.42;69.66;102669.22;10337097;28;19922;-88
2021/10/13 14:45:47;;;;;;;;;;;;;;;18.52;70.47;102672.41;10354325;28;19964;-89
2021/10/13 14:50:47;;;;;;;;;;;;;;;18.17;68.16;102680.72;10338904;28;19972;-89
2021/10/13 14:55:47;;;;;;;;;;;;;;;17.95;68.42;102687.38;10340001;28;19922;-89
2021/10/13 15:00:48;;;;;;;;;;;;;;;17.77;67.61;102683.28;10337995;28;19977;-88
2021/10/13 15:05:48;;;;;;;;;;;;;;;17.58;70.65;102687.56;10352335;28;19913;-89
2021/10/13 15:10:48;;;;;;;;;;;;;;;17.65;69.42;102680.22;10335126;28;19913;-88
2021/10/13 15:15:50;;;;;;;;;;;;;;;17.42;71.09;102682.34;10337149;28;19921;-91
2021/10/13 15:20:50;;;;;;;;;;;;;;;17.37;70.98;102684.88;10352976;28;19922;-91
2021/10/13 15:25:50;;;;;;;;;;;;;;;17.37;71.12;102696.66;10337605;28;19937;-89
2021/10/13 15:30:51;;;;;;;;;;;;;;;17.18;69.99;102700.09;10337531;28;19914;-91
2021/10/13 15:35:51;;;;;;;;;;;;;;;17.06;66.83;102693.47;10353797;28;20425;-91
2021/10/13 15:40:51;;;;;;;;;;;;;;;16.77;70.99;102678.88;10336543;28;19959;-90
2021/10/13 15:45:52;;;;;;;;;;;;;;;16.83;70.84;102678.09;10338719;28;19929;-89
2021/10/13 15:50:54;;;;;;;;;;;;;;;16.79;71.11;102671.31;10339735;28;19921;-90
2021/10/13 15:55:55;;;;;;;;;;;;;;;16.69;69.48;102673.50;10361029;28;19922;-89
2021/10/13 16:00:55;;;;;;;;;;;;;;;16.63;70.84;102671.56;10344734;28;19936;-88
2021/10/13 16:05:55;;;;;;;;;;;;;;;16.59;71.19;102686.63;10344711;28;20418;-88
2021/10/13 16:10:55;;;;;;;;;;;;;;;16.50;72.18;102684.03;10346005;28;19913;-91
2021/10/13 16:15:56;;;;;;;;;;;;;;;16.52;72.18;102679.19;10346439;28;20412;-89
2021/10/13 16:20:56;;;;;;;;;;;;;;;16.38;66.93;102680.09;10345644;28;19945;-90
2021/10/13 16:25:56;;;;;;;;;;;;;;;16.25;70.29;102677.22;10344510;28;19925;-90
2021/10/13 16:30:58;;;;;;;;;;;;;;;16.19;71.40;102670.63;10343407;28;19918;-92
2021/10/13 16:35:58;;;;;;;;;;;;;;;16.08;70.42;102664.81;10341779;28;19941;-91
2021/10/13 16:40:59;;;;;;;;;;;;;;;16.01;72.15;102660.09;10343792;28;19918;-91
2021/10/13 16:45:59;;;;;;;;;;;;;;;15.81;71.24;102656.25;10343108;28;20012;-91
2021/10/13 16:50:59;;;;;;;;;;;;;;;15.63;72.54;102656.59;10356787;28;19921;-91
2021/10/13 16:56:00;;;;;;;;;;;;;;;15.51;72.89;102660.88;10341575;28;20000;-90
2021/10/13 17:01:00;;;;;;;;;;;;;;;15.57;72.68;102655.50;10343824;28;20009;-91
2021/10/13 17:06:00;;;;;;;;;;;;;;;15.55;73.07;102653.97;10357371;28;19953;-92
2021/10/13 17:11:00;;;;;;;;;;;;;;;15.58;73.21;102649.00;10341315;28;19914;-91
2021/10/13 17:16:01;;;;;;;;;;;;;;;15.56;72.41;102651.03;10340734;28;19922;-89
2021/10/13 17:21:01;;;;;;;;;;;;;;;15.49;72.10;102654.72;10340697;28;19922;-92
2021/10/13 17:26:01;;;;;;;;;;;;;;;15.52;70.22;102648.91;10340055;28;20302;-91
2021/10/13 17:31:02;;;;;;;;;;;;;;;15.46;73.36;102663.28;10339634;28;19965;-91
2021/10/13 17:36:02;;;;;;;;;;;;;;;15.49;73.27;102666.50;10340572;28;20008;-91
2021/10/13 17:41:02;;;;;;;;;;;;;;;15.50;73.33;102670.06;10339088;28;19918;-91
2021/10/13 17:46:03;;;;;;;;;;;;;;;15.52;73.45;102674.31;10353798;28;19953;-90
2021/10/13 17:51:03;;;;;;;;;;;;;;;15.53;73.42;102667.81;10339174;28;19984;-93
2021/10/13 17:56:03;;;;;;;;;;;;;;;15.64;73.27;102671.13;10338504;28;20366;-91
2021/10/13 18:01:04;;;;;;;;;;;;;;;15.59;73.23;102664.31;10353880;28;19960;-92
2021/10/13 18:06:04;;;;;;;;;;;;;;;15.70;73.67;102668.53;10338939;28;19921;-93
2021/10/13 18:11:04;;;;;;;;;;;;;;;15.60;73.39;102659.72;10339044;28;19921;-93
2021/10/13 18:16:04;;;;;;;;;;;;;;;15.63;73.41;102658.50;10340323;28;19918;-92
2021/10/13 18:21:05;;;;;;;;;;;;;;;15.63;73.95;102653.88;10337150;28;20400;-91
2021/10/13 18:26:05;;;;;;;;;;;;;;;15.52;74.28;102668.00;10338280;28;20365;-92
2021/10/13 18:31:05;;;;;;;;;;;;;;;15.68;73.92;102665.13;10338735;28;20020;-92
2021/10/13 18:36:05;;;;;;;;;;;;;;;15.74;73.19;102666.25;10355967;28;19965;-92
2021/10/13 18:41:06;;;;;;;;;;;;;;;15.77;73.32;102664.00;10352008;28;19921;-92
2021/10/13 18:46:06;;;;;;;;;;;;;;;15.78;73.96;102656.66;10335939;28;19913;-91
2021/10/13 18:51:06;;;;;;;;;;;;;;;15.77;73.65;102669.47;10337624;28;19972;-92
2021/10/13 18:56:06;;;;;;;;;;;;;;;15.85;73.88;102670.38;10337174;28;19921;-86
2021/10/13 19:01:08;;;;;;;;;;;;;;;15.86;73.80;102667.47;10259117;28;20021;-92
2021/10/13 19:06:08;;;;;;;;;;;;;;;15.80;74.63;102671.81;10297179;28;19914;-92
2021/10/13 19:11:09;;;;;;;;;;;;;;;15.80;74.13;102665.50;10296013;28;19925;-91
2021/10/13 19:16:09;;;;;;;;;;;;;;;15.89;73.70;102668.97;10296827;28;19980;-92
2021/10/13 19:21:09;;;;;;;;;;;;;;;15.85;73.60;102663.03;10280977;28;19944;-92
2021/10/13 19:26:10;;;;;;;;;;;;;;;15.89;72.98;102664.38;10319343;28;20009;-88
2021/10/13 19:31:11;;;;;;;;;;;;;;;16.00;72.35;102665.75;10346624;28;19922;-90
2021/10/13 19:36:11;;;;;;;;;;;;;;;15.99;74.12;102664.09;10343662;28;20016;-90
2021/10/13 19:41:17;;;;;;;;;;;;;;;16.10;73.97;102665.47;10343876;28;19918;-88
2021/10/13 19:46:23;;;;;;;;;;;;;;;16.10;73.75;102665.47;10342737;28;19917;-90
2021/10/13 19:51:23;;;;;;;;;;;;;;;16.06;74.29;102658.69;10343770;28;19965;-90
2021/10/13 19:56:23;;;;;;;;;;;;;;;16.15;73.56;102663.88;10348551;28;19925;-90
2021/10/13 20:01:26;;;;;;;;;;;;;;;16.18;74.01;102663.47;10381666;28;19906;-90
2021/10/13 20:06:27;;;;;;;;;;;;;;;16.18;74.00;102665.38;10388824;28;19960;-87
2021/10/13 20:11:46;;;;;;;;;;;;;;;16.21;73.75;102668.56;10369406;28;19925;-91
2021/10/13 20:16:46;;;;;;;;;;;;;;;16.26;73.90;102668.81;10364335;28;19914;-91
2021/10/13 20:21:46;;;;;;;;;;;;;;;16.21;73.91;102660.38;10373816;28;19923;-90
2021/10/13 20:26:47;;;;;;;;;;;;;;;16.28;73.88;102660.44;10356847;28;19925;-90
2021/10/13 20:31:47;;;;;;;;;;;;;;;16.38;73.82;102669.19;10343698;28;19952;-88
2021/10/13 20:36:47;;;;;;;;;;;;;;;16.31;73.62;102665.53;10333409;28;20366;-88
2021/10/13 20:41:47;;;;;;;;;;;;;;;16.15;73.65;102666.59;10324154;28;19918;-90
2021/10/13 20:46:48;;;;;;;;;;;;;;;15.97;74.31;102652.47;10341671;28;19920;-91
2021/10/13 20:51:48;;;;;;;;;;;;;;;15.95;73.54;102657.28;10340304;28;19940;-90
2021/10/13 20:56:51;;;;;;;;;;;;;;;15.68;74.01;102658.81;10341765;28;20017;-89
2021/10/13 21:01:52;;;;;;;;;;;;;;;15.47;74.68;102657.63;10341949;28;19914;-92
2021/10/13 21:06:52;;;;;;;;;;;;;;;15.37;73.96;102654.34;10340653;28;19922;-92
2021/10/13 21:11:52;;;;;;;;;;;;;;;15.13;75.78;102646.41;10339062;28;20315;-90
2021/10/13 21:17:11;;;;;;;;;;;;;;;15.15;75.00;102645.16;10340607;28;19921;-88
2021/10/13 21:22:12;;;;;;;;;;;;;;;15.08;76.34;102647.78;10339002;28;19922;-81
2021/10/13 21:27:14;;;;;;;;;;;;;;;15.17;76.07;102648.56;10339224;28;19921;-81
2021/10/13 21:32:16;;;;;;;;;;;;;;;15.21;76.14;102647.16;10338556;28;20012;-81
2021/10/13 21:37:17;;;;;;;;;;;;;;;15.14;76.31;102648.09;10338533;28;19926;-80
2021/10/13 21:42:17;;;;;;;;;;;;;;;15.08;76.84;102645.06;10337093;28;20395;-82
2021/10/13 21:47:17;;;;;;;;;;;;;;;15.14;76.78;102648.09;10337105;28;20357;-81
2021/10/13 21:52:17;;;;;;;;;;;;;;;15.21;76.60;102647.16;10336360;28;19929;-82
2021/10/13 21:57:17;;;;;;;;;;;;;;;15.32;76.53;102638.53;10335047;28;19925;-82
2021/10/13 22:02:18;;;;;;;;;;;;;;;15.41;76.05;102638.41;10336626;28;19929;-81
2021/10/13 22:07:18;;;;;;;;;;;;;;;15.50;76.30;102640.88;10336258;28;19920;-82
2021/10/13 22:12:18;;;;;;;;;;;;;;;15.52;75.55;102641.53;10335190;28;20290;-81
2021/10/13 22:17:19;;;;;;;;;;;;;;;15.45;76.49;102637.88;10335999;28;20013;-81
2021/10/13 22:22:21;;;;;;;;;;;;;;;15.61;76.07;102639.56;10334972;28;19969;-82
2021/10/13 22:27:21;;;;;;;;;;;;;;;15.71;75.65;102642.06;10335407;28;19918;-81
2021/10/13 22:32:21;;;;;;;;;;;;;;;15.74;75.89;102633.47;10335414;28;19918;-81
2021/10/13 22:37:22;;;;;;;;;;;;;;;15.84;75.72;102636.75;10333860;28;19921;-81
2021/10/13 22:42:22;;;;;;;;;;;;;;;15.95;75.55;102641.75;10333036;28;19917;-82
2021/10/13 22:47:22;;;;;;;;;;;;;;;15.95;75.56;102628.09;10334815;28;19941;-82
2021/10/13 22:52:22;;;;;;;;;;;;;;;15.98;75.25;102624.09;10333454;28;19928;-82
2021/10/13 22:57:24;;;;;;;;;;;;;;;15.96;75.46;102618.84;10332961;28;19917;-82
2021/10/13 23:02:24;;;;;;;;;;;;;;;16.02;75.57;102615.34;10332531;28;19924;-81
2021/10/13 23:07:24;;;;;;;;;;;;;;;16.09;75.72;102615.44;10335267;28;20267;-79
2021/10/13 23:12:25;;;;;;;;;;;;;;;16.14;75.56;102612.09;10334432;28;19984;-82
2021/10/13 23:17:25;;;;;;;;;;;;;;;16.09;75.82;102609.13;10334333;28;19924;-80
2021/10/13 23:22:26;;;;;;;;;;;;;;;16.17;75.74;102607.09;10335817;28;19921;-82
2021/10/13 23:27:26;;;;;;;;;;;;;;;16.21;75.50;102613.91;10334820;28;19913;-81
2021/10/13 23:32:26;;;;;;;;;;;;;;;16.22;75.64;102606.53;10335775;28;19971;-81
2021/10/13 23:37:26;;;;;;;;;;;;;;;16.21;75.65;102613.91;10333961;28;19913;-82
2021/10/13 23:42:26;;;;;;;;;;;;;;;16.20;75.26;102606.72;10316910;28;20421;-81
2021/10/13 23:47:27;;;;;;;;;;;;;;;16.17;75.61;102606.25;10318946;28;19917;-81
2021/10/13 23:52:27;;;;;;;;;;;;;;;16.25;75.45;102612.47;10334030;28;19928;-79
2021/10/13 23:57:27;;;;;;;;;;;;;;;16.25;75.83;102603.41;10333373;28;19921;-79
